sensor_id;sensor_type;location;lat;lon;timestamp;P1;durP1;ratioP1;P2;durP2;ratioP2
64075;SDS011;50327;51.328;12.324;2023-12-20T00:00:53;9.20;;;3.90;;
64075;SDS011;50327;51.328;12.324;2023-12-20T00:03:18;8.35;;;3.58;;
64075;SDS011;50327;51.328;12.324;2023-12-20T00:05:43;8.07;;;3.72;;
64075;SDS011;50327;51.328;12.324;2023-12-20T00:08:09;6.13;;;3.25;;
64075;SDS011;50327;51.328;12.324;2023-12-20T00:10:34;7.20;;;3.25;;
64075;SDS011;50327;51.328;12.324;2023-12-20T00:12:59;8.18;;;3.50;;
64075;SDS011;50327;51.328;12.324;2023-12-20T00:15:24;6.68;;;3.08;;
64075;SDS011;50327;51.328;12.324;2023-12-20T00:17:50;5.53;;;2.80;;
64075;SDS011;50327;51.328;12.324;2023-12-20T00:20:15;6.75;;;3.60;;
64075;SDS011;50327;51.328;12.324;2023-12-20T00:22:40;7.32;;;3.05;;
64075;SDS011;50327;51.328;12.324;2023-12-20T00:25:05;7.10;;;3.47;;
64075;SDS011;50327;51.328;12.324;2023-12-20T00:27:31;6.95;;;3.22;;
64075;SDS011;50327;51.328;12.324;2023-12-20T00:29:56;6.88;;;3.35;;
64075;SDS011;50327;51.328;12.324;2023-12-20T00:32:21;7.13;;;2.80;;
64075;SDS011;50327;51.328;12.324;2023-12-20T00:34:46;5.88;;;2.78;;
64075;SDS011;50327;51.328;12.324;2023-12-20T00:37:12;6.65;;;2.90;;
64075;SDS011;50327;51.328;12.324;2023-12-20T00:39:37;5.95;;;3.05;;
64075;SDS011;50327;51.328;12.324;2023-12-20T00:42:02;4.85;;;2.63;;
64075;SDS011;50327;51.328;12.324;2023-12-20T00:44:27;8.13;;;3.00;;
64075;SDS011;50327;51.328;12.324;2023-12-20T00:46:53;7.40;;;3.25;;
64075;SDS011;50327;51.328;12.324;2023-12-20T00:49:18;5.20;;;2.58;;
64075;SDS011;50327;51.328;12.324;2023-12-20T00:51:43;7.13;;;2.30;;
64075;SDS011;50327;51.328;12.324;2023-12-20T00:54:08;5.53;;;2.50;;
64075;SDS011;50327;51.328;12.324;2023-12-20T00:56:34;4.57;;;2.58;;
64075;SDS011;50327;51.328;12.324;2023-12-20T00:58:59;3.30;;;1.90;;
64075;SDS011;50327;51.328;12.324;2023-12-20T01:01:24;3.17;;;1.70;;
64075;SDS011;50327;51.328;12.324;2023-12-20T01:03:50;4.28;;;2.28;;
64075;SDS011;50327;51.328;12.324;2023-12-20T01:06:16;4.63;;;2.05;;
64075;SDS011;50327;51.328;12.324;2023-12-20T01:08:41;3.88;;;1.85;;
64075;SDS011;50327;51.328;12.324;2023-12-20T01:11:06;4.38;;;2.03;;
64075;SDS011;50327;51.328;12.324;2023-12-20T01:13:32;5.15;;;2.00;;
64075;SDS011;50327;51.328;12.324;2023-12-20T01:15:57;4.30;;;1.90;;
64075;SDS011;50327;51.328;12.324;2023-12-20T01:18:22;3.38;;;2.00;;
64075;SDS011;50327;51.328;12.324;2023-12-20T01:20:47;5.30;;;2.13;;
64075;SDS011;50327;51.328;12.324;2023-12-20T01:23:13;5.28;;;2.13;;
64075;SDS011;50327;51.328;12.324;2023-12-20T01:25:38;3.20;;;1.63;;
64075;SDS011;50327;51.328;12.324;2023-12-20T01:28:04;2.63;;;1.42;;
64075;SDS011;50327;51.328;12.324;2023-12-20T01:30:29;3.17;;;1.67;;
64075;SDS011;50327;51.328;12.324;2023-12-20T01:32:54;3.85;;;1.80;;
64075;SDS011;50327;51.328;12.324;2023-12-20T01:35:19;3.70;;;1.63;;
64075;SDS011;50327;51.328;12.324;2023-12-20T01:37:45;3.42;;;1.70;;
64075;SDS011;50327;51.328;12.324;2023-12-20T01:40:10;4.60;;;1.77;;
64075;SDS011;50327;51.328;12.324;2023-12-20T01:42:35;3.38;;;1.60;;
64075;SDS011;50327;51.328;12.324;2023-12-20T01:45:00;4.00;;;1.70;;
64075;SDS011;50327;51.328;12.324;2023-12-20T01:47:26;4.57;;;1.67;;
64075;SDS011;50327;51.328;12.324;2023-12-20T01:49:52;3.03;;;1.55;;
64075;SDS011;50327;51.328;12.324;2023-12-20T01:52:17;5.47;;;1.70;;
64075;SDS011;50327;51.328;12.324;2023-12-20T01:54:42;4.72;;;1.98;;
64075;SDS011;50327;51.328;12.324;2023-12-20T01:57:08;2.53;;;1.40;;
64075;SDS011;50327;51.328;12.324;2023-12-20T01:59:34;3.15;;;1.50;;
64075;SDS011;50327;51.328;12.324;2023-12-20T02:01:59;3.08;;;1.60;;
64075;SDS011;50327;51.328;12.324;2023-12-20T02:04:25;2.72;;;1.40;;
64075;SDS011;50327;51.328;12.324;2023-12-20T02:06:52;3.80;;;1.92;;
64075;SDS011;50327;51.328;12.324;2023-12-20T02:09:17;4.60;;;1.73;;
64075;SDS011;50327;51.328;12.324;2023-12-20T02:11:43;2.88;;;1.55;;
64075;SDS011;50327;51.328;12.324;2023-12-20T02:14:08;2.83;;;1.50;;
64075;SDS011;50327;51.328;12.324;2023-12-20T02:16:33;3.05;;;1.63;;
64075;SDS011;50327;51.328;12.324;2023-12-20T02:18:58;3.20;;;1.70;;
64075;SDS011;50327;51.328;12.324;2023-12-20T02:21:33;2.85;;;1.50;;
64075;SDS011;50327;51.328;12.324;2023-12-20T02:23:59;4.32;;;1.58;;
64075;SDS011;50327;51.328;12.324;2023-12-20T02:26:25;2.65;;;1.42;;
64075;SDS011;50327;51.328;12.324;2023-12-20T02:28:50;2.83;;;1.63;;
64075;SDS011;50327;51.328;12.324;2023-12-20T02:31:15;2.78;;;1.40;;
64075;SDS011;50327;51.328;12.324;2023-12-20T02:33:40;2.00;;;1.30;;
64075;SDS011;50327;51.328;12.324;2023-12-20T02:36:07;2.92;;;1.80;;
64075;SDS011;50327;51.328;12.324;2023-12-20T02:38:32;3.10;;;1.58;;
64075;SDS011;50327;51.328;12.324;2023-12-20T02:40:57;2.80;;;1.48;;
64075;SDS011;50327;51.328;12.324;2023-12-20T02:43:22;4.18;;;2.10;;
64075;SDS011;50327;51.328;12.324;2023-12-20T02:45:48;4.32;;;1.65;;
64075;SDS011;50327;51.328;12.324;2023-12-20T02:48:13;3.53;;;1.40;;
64075;SDS011;50327;51.328;12.324;2023-12-20T02:50:38;3.50;;;1.80;;
64075;SDS011;50327;51.328;12.324;2023-12-20T02:53:03;4.30;;;1.77;;
64075;SDS011;50327;51.328;12.324;2023-12-20T02:55:29;3.83;;;1.90;;
64075;SDS011;50327;51.328;12.324;2023-12-20T02:57:54;4.13;;;2.00;;
64075;SDS011;50327;51.328;12.324;2023-12-20T03:00:19;2.58;;;1.55;;
64075;SDS011;50327;51.328;12.324;2023-12-20T03:02:44;2.95;;;1.58;;
64075;SDS011;50327;51.328;12.324;2023-12-20T03:05:10;3.75;;;1.70;;
64075;SDS011;50327;51.328;12.324;2023-12-20T03:07:36;3.63;;;1.67;;
64075;SDS011;50327;51.328;12.324;2023-12-20T03:10:01;3.15;;;1.80;;
64075;SDS011;50327;51.328;12.324;2023-12-20T03:12:26;2.22;;;1.30;;
64075;SDS011;50327;51.328;12.324;2023-12-20T03:14:52;3.45;;;1.70;;
64075;SDS011;50327;51.328;12.324;2023-12-20T03:17:17;2.58;;;1.50;;
64075;SDS011;50327;51.328;12.324;2023-12-20T03:19:42;3.22;;;1.65;;
64075;SDS011;50327;51.328;12.324;2023-12-20T03:22:07;5.45;;;2.03;;
64075;SDS011;50327;51.328;12.324;2023-12-20T03:24:33;4.70;;;1.80;;
64075;SDS011;50327;51.328;12.324;2023-12-20T03:26:58;3.72;;;1.77;;
64075;SDS011;50327;51.328;12.324;2023-12-20T03:29:23;3.35;;;1.80;;
64075;SDS011;50327;51.328;12.324;2023-12-20T03:31:48;4.25;;;2.33;;
64075;SDS011;50327;51.328;12.324;2023-12-20T03:34:14;4.13;;;1.75;;
64075;SDS011;50327;51.328;12.324;2023-12-20T03:36:39;3.45;;;1.75;;
64075;SDS011;50327;51.328;12.324;2023-12-20T03:39:05;2.90;;;1.67;;
64075;SDS011;50327;51.328;12.324;2023-12-20T03:41:30;3.65;;;1.92;;
64075;SDS011;50327;51.328;12.324;2023-12-20T03:43:55;5.25;;;1.70;;
64075;SDS011;50327;51.328;12.324;2023-12-20T03:46:20;4.07;;;2.00;;
64075;SDS011;50327;51.328;12.324;2023-12-20T03:48:45;3.90;;;1.70;;
64075;SDS011;50327;51.328;12.324;2023-12-20T03:51:11;3.58;;;2.22;;
64075;SDS011;50327;51.328;12.324;2023-12-20T03:53:36;3.65;;;1.77;;
64075;SDS011;50327;51.328;12.324;2023-12-20T03:56:01;4.10;;;2.28;;
64075;SDS011;50327;51.328;12.324;2023-12-20T03:58:27;2.58;;;1.42;;
64075;SDS011;50327;51.328;12.324;2023-12-20T04:00:52;4.18;;;2.05;;
64075;SDS011;50327;51.328;12.324;2023-12-20T04:03:17;3.50;;;1.83;;
64075;SDS011;50327;51.328;12.324;2023-12-20T04:05:42;3.90;;;2.10;;
64075;SDS011;50327;51.328;12.324;2023-12-20T04:08:08;4.93;;;2.35;;
64075;SDS011;50327;51.328;12.324;2023-12-20T04:10:33;3.65;;;2.17;;
64075;SDS011;50327;51.328;12.324;2023-12-20T04:12:58;5.50;;;2.08;;
64075;SDS011;50327;51.328;12.324;2023-12-20T04:15:23;3.97;;;2.30;;
64075;SDS011;50327;51.328;12.324;2023-12-20T04:17:49;4.80;;;2.60;;
64075;SDS011;50327;51.328;12.324;2023-12-20T04:20:14;4.32;;;2.35;;
64075;SDS011;50327;51.328;12.324;2023-12-20T04:22:39;4.85;;;2.45;;
64075;SDS011;50327;51.328;12.324;2023-12-20T04:25:04;4.53;;;2.33;;
64075;SDS011;50327;51.328;12.324;2023-12-20T04:27:30;4.63;;;2.35;;
64075;SDS011;50327;51.328;12.324;2023-12-20T04:29:55;4.97;;;2.42;;
64075;SDS011;50327;51.328;12.324;2023-12-20T04:32:20;7.55;;;2.20;;
64075;SDS011;50327;51.328;12.324;2023-12-20T04:34:45;5.75;;;2.40;;
64075;SDS011;50327;51.328;12.324;2023-12-20T04:37:11;4.43;;;2.42;;
64075;SDS011;50327;51.328;12.324;2023-12-20T04:39:37;3.95;;;2.17;;
64075;SDS011;50327;51.328;12.324;2023-12-20T04:42:02;5.85;;;2.80;;
64075;SDS011;50327;51.328;12.324;2023-12-20T04:44:27;6.30;;;3.20;;
64075;SDS011;50327;51.328;12.324;2023-12-20T04:46:53;5.38;;;2.33;;
64075;SDS011;50327;51.328;12.324;2023-12-20T04:49:18;4.93;;;2.78;;
64075;SDS011;50327;51.328;12.324;2023-12-20T04:51:43;5.03;;;2.47;;
64075;SDS011;50327;51.328;12.324;2023-12-20T04:54:08;5.00;;;2.60;;
64075;SDS011;50327;51.328;12.324;2023-12-20T04:56:35;3.92;;;2.47;;
64075;SDS011;50327;51.328;12.324;2023-12-20T04:59:00;5.95;;;2.83;;
64075;SDS011;50327;51.328;12.324;2023-12-20T05:01:25;7.35;;;3.42;;
64075;SDS011;50327;51.328;12.324;2023-12-20T05:03:50;5.60;;;2.80;;
64075;SDS011;50327;51.328;12.324;2023-12-20T05:06:16;7.50;;;3.22;;
64075;SDS011;50327;51.328;12.324;2023-12-20T05:08:41;5.97;;;3.35;;
64075;SDS011;50327;51.328;12.324;2023-12-20T05:11:06;7.28;;;3.33;;
64075;SDS011;50327;51.328;12.324;2023-12-20T05:13:31;6.68;;;3.53;;
64075;SDS011;50327;51.328;12.324;2023-12-20T05:15:56;6.00;;;2.88;;
64075;SDS011;50327;51.328;12.324;2023-12-20T05:18:22;7.07;;;3.55;;
64075;SDS011;50327;51.328;12.324;2023-12-20T05:20:48;6.38;;;3.35;;
64075;SDS011;50327;51.328;12.324;2023-12-20T05:23:13;5.75;;;3.20;;
64075;SDS011;50327;51.328;12.324;2023-12-20T05:25:39;5.93;;;2.92;;
64075;SDS011;50327;51.328;12.324;2023-12-20T05:28:04;6.78;;;3.42;;
64075;SDS011;50327;51.328;12.324;2023-12-20T05:30:29;7.05;;;3.45;;
64075;SDS011;50327;51.328;12.324;2023-12-20T05:32:54;8.73;;;3.70;;
64075;SDS011;50327;51.328;12.324;2023-12-20T05:35:19;6.20;;;3.30;;
64075;SDS011;50327;51.328;12.324;2023-12-20T05:37:45;8.45;;;3.47;;
64075;SDS011;50327;51.328;12.324;2023-12-20T05:40:10;5.85;;;3.38;;
64075;SDS011;50327;51.328;12.324;2023-12-20T05:42:36;7.20;;;3.95;;
64075;SDS011;50327;51.328;12.324;2023-12-20T05:45:02;7.32;;;3.90;;
64075;SDS011;50327;51.328;12.324;2023-12-20T05:47:27;7.13;;;3.38;;
64075;SDS011;50327;51.328;12.324;2023-12-20T05:49:53;7.40;;;4.10;;
64075;SDS011;50327;51.328;12.324;2023-12-20T05:52:18;6.63;;;3.80;;
64075;SDS011;50327;51.328;12.324;2023-12-20T05:54:43;6.93;;;3.90;;
64075;SDS011;50327;51.328;12.324;2023-12-20T05:57:09;6.57;;;3.55;;
64075;SDS011;50327;51.328;12.324;2023-12-20T05:59:34;6.38;;;3.55;;
64075;SDS011;50327;51.328;12.324;2023-12-20T06:01:59;7.85;;;3.80;;
64075;SDS011;50327;51.328;12.324;2023-12-20T06:04:24;6.93;;;3.53;;
64075;SDS011;50327;51.328;12.324;2023-12-20T06:06:49;7.72;;;3.55;;
64075;SDS011;50327;51.328;12.324;2023-12-20T06:09:15;5.47;;;3.00;;
64075;SDS011;50327;51.328;12.324;2023-12-20T06:11:40;8.32;;;3.40;;
64075;SDS011;50327;51.328;12.324;2023-12-20T06:14:05;12.93;;;4.32;;
64075;SDS011;50327;51.328;12.324;2023-12-20T06:16:31;6.43;;;3.25;;
64075;SDS011;50327;51.328;12.324;2023-12-20T06:18:56;8.98;;;3.00;;
64075;SDS011;50327;51.328;12.324;2023-12-20T06:21:21;8.20;;;3.72;;
64075;SDS011;50327;51.328;12.324;2023-12-20T06:23:46;14.02;;;4.20;;
64075;SDS011;50327;51.328;12.324;2023-12-20T06:26:11;6.53;;;3.13;;
64075;SDS011;50327;51.328;12.324;2023-12-20T06:28:37;8.05;;;3.38;;
64075;SDS011;50327;51.328;12.324;2023-12-20T06:31:02;9.88;;;2.75;;
64075;SDS011;50327;51.328;12.324;2023-12-20T06:33:28;5.30;;;2.80;;
64075;SDS011;50327;51.328;12.324;2023-12-20T06:35:54;8.05;;;2.88;;
64075;SDS011;50327;51.328;12.324;2023-12-20T06:38:19;5.57;;;2.90;;
64075;SDS011;50327;51.328;12.324;2023-12-20T06:40:45;5.63;;;3.00;;
64075;SDS011;50327;51.328;12.324;2023-12-20T06:43:11;7.65;;;3.53;;
64075;SDS011;50327;51.328;12.324;2023-12-20T06:45:36;5.78;;;2.63;;
64075;SDS011;50327;51.328;12.324;2023-12-20T06:48:02;6.60;;;3.10;;
64075;SDS011;50327;51.328;12.324;2023-12-20T06:50:27;6.40;;;2.50;;
64075;SDS011;50327;51.328;12.324;2023-12-20T06:52:52;5.68;;;3.00;;
64075;SDS011;50327;51.328;12.324;2023-12-20T06:55:17;7.43;;;2.75;;
64075;SDS011;50327;51.328;12.324;2023-12-20T06:57:43;6.57;;;2.75;;
64075;SDS011;50327;51.328;12.324;2023-12-20T07:00:08;4.72;;;2.53;;
64075;SDS011;50327;51.328;12.324;2023-12-20T07:02:37;5.68;;;2.63;;
64075;SDS011;50327;51.328;12.324;2023-12-20T07:05:02;7.32;;;2.75;;
64075;SDS011;50327;51.328;12.324;2023-12-20T07:07:28;4.97;;;2.38;;
64075;SDS011;50327;51.328;12.324;2023-12-20T07:09:53;5.60;;;2.85;;
64075;SDS011;50327;51.328;12.324;2023-12-20T07:12:18;6.28;;;2.30;;
64075;SDS011;50327;51.328;12.324;2023-12-20T07:14:44;4.60;;;2.20;;
64075;SDS011;50327;51.328;12.324;2023-12-20T07:17:10;5.32;;;2.35;;
64075;SDS011;50327;51.328;12.324;2023-12-20T07:19:37;5.68;;;2.25;;
64075;SDS011;50327;51.328;12.324;2023-12-20T07:22:02;3.95;;;1.38;;
64075;SDS011;50327;51.328;12.324;2023-12-20T07:24:27;7.13;;;1.83;;
64075;SDS011;50327;51.328;12.324;2023-12-20T07:26:53;6.32;;;1.60;;
64075;SDS011;50327;51.328;12.324;2023-12-20T07:29:18;5.45;;;1.60;;
64075;SDS011;50327;51.328;12.324;2023-12-20T07:31:43;4.00;;;1.23;;
64075;SDS011;50327;51.328;12.324;2023-12-20T07:34:08;5.10;;;1.55;;
64075;SDS011;50327;51.328;12.324;2023-12-20T07:36:33;7.03;;;1.90;;
64075;SDS011;50327;51.328;12.324;2023-12-20T07:38:59;6.60;;;1.65;;
64075;SDS011;50327;51.328;12.324;2023-12-20T07:41:24;5.90;;;1.27;;
64075;SDS011;50327;51.328;12.324;2023-12-20T07:43:49;4.43;;;1.20;;
64075;SDS011;50327;51.328;12.324;2023-12-20T07:46:14;5.30;;;1.63;;
64075;SDS011;50327;51.328;12.324;2023-12-20T07:48:39;5.82;;;1.90;;
64075;SDS011;50327;51.328;12.324;2023-12-20T07:51:06;7.88;;;1.65;;
64075;SDS011;50327;51.328;12.324;2023-12-20T07:53:33;4.65;;;1.63;;
64075;SDS011;50327;51.328;12.324;2023-12-20T07:55:58;4.13;;;1.70;;
64075;SDS011;50327;51.328;12.324;2023-12-20T07:58:23;5.40;;;1.50;;
64075;SDS011;50327;51.328;12.324;2023-12-20T08:00:48;3.10;;;1.30;;
64075;SDS011;50327;51.328;12.324;2023-12-20T08:03:14;5.00;;;1.40;;
64075;SDS011;50327;51.328;12.324;2023-12-20T08:05:39;5.45;;;1.48;;
64075;SDS011;50327;51.328;12.324;2023-12-20T08:08:07;6.20;;;1.80;;
64075;SDS011;50327;51.328;12.324;2023-12-20T08:10:32;5.65;;;1.67;;
64075;SDS011;50327;51.328;12.324;2023-12-20T08:12:57;6.45;;;1.48;;
64075;SDS011;50327;51.328;12.324;2023-12-20T08:15:23;4.93;;;1.40;;
64075;SDS011;50327;51.328;12.324;2023-12-20T08:17:48;9.90;;;1.58;;
64075;SDS011;50327;51.328;12.324;2023-12-20T08:20:15;3.42;;;1.20;;
64075;SDS011;50327;51.328;12.324;2023-12-20T08:22:41;4.70;;;1.10;;
64075;SDS011;50327;51.328;12.324;2023-12-20T08:25:06;7.82;;;2.03;;
64075;SDS011;50327;51.328;12.324;2023-12-20T08:27:31;4.93;;;1.20;;
64075;SDS011;50327;51.328;12.324;2023-12-20T08:29:57;3.55;;;1.10;;
64075;SDS011;50327;51.328;12.324;2023-12-20T08:32:22;2.95;;;1.20;;
64075;SDS011;50327;51.328;12.324;2023-12-20T08:34:49;5.72;;;1.42;;
64075;SDS011;50327;51.328;12.324;2023-12-20T08:37:15;2.20;;;1.08;;
64075;SDS011;50327;51.328;12.324;2023-12-20T08:39:40;3.53;;;1.10;;
64075;SDS011;50327;51.328;12.324;2023-12-20T08:42:06;3.80;;;1.42;;
64075;SDS011;50327;51.328;12.324;2023-12-20T08:44:31;5.00;;;1.58;;
64075;SDS011;50327;51.328;12.324;2023-12-20T08:46:56;4.32;;;1.33;;
64075;SDS011;50327;51.328;12.324;2023-12-20T08:49:22;2.97;;;1.35;;
64075;SDS011;50327;51.328;12.324;2023-12-20T08:51:47;2.60;;;1.40;;
64075;SDS011;50327;51.328;12.324;2023-12-20T08:54:12;4.25;;;1.60;;
64075;SDS011;50327;51.328;12.324;2023-12-20T08:56:38;3.35;;;1.40;;
64075;SDS011;50327;51.328;12.324;2023-12-20T08:59:03;4.03;;;1.48;;
64075;SDS011;50327;51.328;12.324;2023-12-20T09:01:28;4.63;;;1.30;;
64075;SDS011;50327;51.328;12.324;2023-12-20T09:03:53;8.10;;;1.73;;
64075;SDS011;50327;51.328;12.324;2023-12-20T09:06:19;5.03;;;1.40;;
64075;SDS011;50327;51.328;12.324;2023-12-20T09:08:44;7.50;;;1.77;;
64075;SDS011;50327;51.328;12.324;2023-12-20T09:11:09;9.93;;;2.00;;
64075;SDS011;50327;51.328;12.324;2023-12-20T09:13:35;5.47;;;1.70;;
64075;SDS011;50327;51.328;12.324;2023-12-20T09:16:00;8.82;;;1.65;;
64075;SDS011;50327;51.328;12.324;2023-12-20T09:18:25;5.65;;;1.88;;
64075;SDS011;50327;51.328;12.324;2023-12-20T09:20:51;7.35;;;1.75;;
64075;SDS011;50327;51.328;12.324;2023-12-20T09:23:16;7.22;;;1.63;;
64075;SDS011;50327;51.328;12.324;2023-12-20T09:25:43;4.35;;;1.45;;
64075;SDS011;50327;51.328;12.324;2023-12-20T09:28:08;7.90;;;2.05;;
64075;SDS011;50327;51.328;12.324;2023-12-20T09:30:33;5.40;;;1.40;;
64075;SDS011;50327;51.328;12.324;2023-12-20T09:33:00;3.47;;;1.67;;
64075;SDS011;50327;51.328;12.324;2023-12-20T09:35:25;7.05;;;1.80;;
64075;SDS011;50327;51.328;12.324;2023-12-20T09:37:51;7.30;;;1.80;;
64075;SDS011;50327;51.328;12.324;2023-12-20T09:40:18;8.90;;;1.77;;
64075;SDS011;50327;51.328;12.324;2023-12-20T09:42:47;7.75;;;2.13;;
64075;SDS011;50327;51.328;12.324;2023-12-20T09:45:14;7.18;;;1.58;;
64075;SDS011;50327;51.328;12.324;2023-12-20T09:47:42;4.20;;;1.63;;
64075;SDS011;50327;51.328;12.324;2023-12-20T09:50:08;5.55;;;1.65;;
64075;SDS011;50327;51.328;12.324;2023-12-20T09:52:33;8.32;;;1.95;;
64075;SDS011;50327;51.328;12.324;2023-12-20T09:54:59;6.72;;;1.83;;
64075;SDS011;50327;51.328;12.324;2023-12-20T09:57:26;6.55;;;1.65;;
64075;SDS011;50327;51.328;12.324;2023-12-20T09:59:51;12.23;;;2.30;;
64075;SDS011;50327;51.328;12.324;2023-12-20T10:02:17;4.57;;;1.42;;
64075;SDS011;50327;51.328;12.324;2023-12-20T10:04:47;11.32;;;2.60;;
64075;SDS011;50327;51.328;12.324;2023-12-20T10:07:13;9.88;;;2.75;;
64075;SDS011;50327;51.328;12.324;2023-12-20T10:09:38;8.55;;;2.08;;
64075;SDS011;50327;51.328;12.324;2023-12-20T10:12:03;8.18;;;2.10;;
64075;SDS011;50327;51.328;12.324;2023-12-20T10:14:30;6.25;;;2.55;;
64075;SDS011;50327;51.328;12.324;2023-12-20T10:17:01;8.48;;;2.00;;
64075;SDS011;50327;51.328;12.324;2023-12-20T10:19:26;8.48;;;2.10;;
64075;SDS011;50327;51.328;12.324;2023-12-20T10:21:51;7.75;;;1.95;;
64075;SDS011;50327;51.328;12.324;2023-12-20T10:24:17;12.55;;;2.20;;
64075;SDS011;50327;51.328;12.324;2023-12-20T10:26:42;9.00;;;1.75;;
64075;SDS011;50327;51.328;12.324;2023-12-20T10:29:08;8.93;;;1.92;;
64075;SDS011;50327;51.328;12.324;2023-12-20T10:31:35;8.75;;;2.03;;
64075;SDS011;50327;51.328;12.324;2023-12-20T10:34:00;11.35;;;2.35;;
64075;SDS011;50327;51.328;12.324;2023-12-20T10:36:26;9.77;;;1.65;;
64075;SDS011;50327;51.328;12.324;2023-12-20T10:38:52;4.07;;;1.65;;
64075;SDS011;50327;51.328;12.324;2023-12-20T10:41:18;6.00;;;1.67;;
64075;SDS011;50327;51.328;12.324;2023-12-20T10:43:47;9.77;;;2.17;;
64075;SDS011;50327;51.328;12.324;2023-12-20T10:46:12;9.65;;;1.83;;
64075;SDS011;50327;51.328;12.324;2023-12-20T10:48:38;5.10;;;1.60;;
64075;SDS011;50327;51.328;12.324;2023-12-20T10:51:04;6.32;;;2.00;;
64075;SDS011;50327;51.328;12.324;2023-12-20T10:53:30;7.63;;;1.95;;
64075;SDS011;50327;51.328;12.324;2023-12-20T10:55:55;11.93;;;1.95;;
64075;SDS011;50327;51.328;12.324;2023-12-20T10:58:22;6.55;;;1.90;;
64075;SDS011;50327;51.328;12.324;2023-12-20T11:00:47;8.82;;;2.22;;
64075;SDS011;50327;51.328;12.324;2023-12-20T11:03:15;3.53;;;1.33;;
64075;SDS011;50327;51.328;12.324;2023-12-20T11:08:55;8.02;;;1.92;;
64075;SDS011;50327;51.328;12.324;2023-12-20T11:11:28;6.75;;;2.20;;
64075;SDS011;50327;51.328;12.324;2023-12-20T11:14:05;9.02;;;2.03;;
64075;SDS011;50327;51.328;12.324;2023-12-20T11:16:33;15.85;;;2.17;;
64075;SDS011;50327;51.328;12.324;2023-12-20T11:19:04;5.75;;;1.75;;
64075;SDS011;50327;51.328;12.324;2023-12-20T11:21:29;4.90;;;1.15;;
64075;SDS011;50327;51.328;12.324;2023-12-20T11:23:55;4.47;;;1.38;;
64075;SDS011;50327;51.328;12.324;2023-12-20T11:26:26;6.60;;;1.55;;
64075;SDS011;50327;51.328;12.324;2023-12-20T11:28:52;10.07;;;1.52;;
64075;SDS011;50327;51.328;12.324;2023-12-20T11:31:18;5.60;;;1.90;;
64075;SDS011;50327;51.328;12.324;2023-12-20T11:33:44;16.08;;;2.08;;
64075;SDS011;50327;51.328;12.324;2023-12-20T11:38:38;7.20;;;1.58;;
64075;SDS011;50327;51.328;12.324;2023-12-20T11:41:05;4.10;;;1.50;;
64075;SDS011;50327;51.328;12.324;2023-12-20T11:43:37;5.45;;;1.77;;
64075;SDS011;50327;51.328;12.324;2023-12-20T11:46:05;5.22;;;1.70;;
64075;SDS011;50327;51.328;12.324;2023-12-20T11:48:31;5.05;;;1.40;;
64075;SDS011;50327;51.328;12.324;2023-12-20T11:50:56;11.38;;;2.05;;
64075;SDS011;50327;51.328;12.324;2023-12-20T11:53:22;10.25;;;1.88;;
64075;SDS011;50327;51.328;12.324;2023-12-20T11:55:48;4.07;;;1.75;;
64075;SDS011;50327;51.328;12.324;2023-12-20T11:58:13;21.50;;;2.65;;
64075;SDS011;50327;51.328;12.324;2023-12-20T12:00:40;13.07;;;1.80;;
64075;SDS011;50327;51.328;12.324;2023-12-20T12:03:06;8.32;;;1.70;;
64075;SDS011;50327;51.328;12.324;2023-12-20T12:05:31;6.63;;;1.80;;
64075;SDS011;50327;51.328;12.324;2023-12-20T12:07:58;5.25;;;1.25;;
64075;SDS011;50327;51.328;12.324;2023-12-20T12:10:23;9.00;;;1.92;;
64075;SDS011;50327;51.328;12.324;2023-12-20T12:12:48;2.90;;;1.20;;
64075;SDS011;50327;51.328;12.324;2023-12-20T12:15:14;5.07;;;1.65;;
64075;SDS011;50327;51.328;12.324;2023-12-20T12:17:39;14.32;;;1.98;;
64075;SDS011;50327;51.328;12.324;2023-12-20T12:20:05;4.93;;;1.60;;
64075;SDS011;50327;51.328;12.324;2023-12-20T12:22:30;3.30;;;1.33;;
64075;SDS011;50327;51.328;12.324;2023-12-20T12:24:58;6.82;;;2.10;;
64075;SDS011;50327;51.328;12.324;2023-12-20T12:27:24;6.75;;;1.95;;
64075;SDS011;50327;51.328;12.324;2023-12-20T12:30:02;8.68;;;1.85;;
64075;SDS011;50327;51.328;12.324;2023-12-20T12:32:28;9.13;;;1.80;;
64075;SDS011;50327;51.328;12.324;2023-12-20T12:34:53;6.47;;;1.70;;
64075;SDS011;50327;51.328;12.324;2023-12-20T12:37:19;10.93;;;1.90;;
64075;SDS011;50327;51.328;12.324;2023-12-20T12:39:46;5.40;;;1.70;;
64075;SDS011;50327;51.328;12.324;2023-12-20T12:42:11;9.15;;;2.15;;
64075;SDS011;50327;51.328;12.324;2023-12-20T12:44:36;2.83;;;1.20;;
64075;SDS011;50327;51.328;12.324;2023-12-20T12:47:01;2.75;;;1.20;;
64075;SDS011;50327;51.328;12.324;2023-12-20T12:49:28;6.10;;;1.58;;
64075;SDS011;50327;51.328;12.324;2023-12-20T12:51:53;3.55;;;1.60;;
64075;SDS011;50327;51.328;12.324;2023-12-20T12:54:21;3.55;;;1.20;;
64075;SDS011;50327;51.328;12.324;2023-12-20T12:56:46;6.18;;;1.23;;
64075;SDS011;50327;51.328;12.324;2023-12-20T12:59:12;6.13;;;1.55;;
64075;SDS011;50327;51.328;12.324;2023-12-20T13:01:38;4.47;;;1.40;;
64075;SDS011;50327;51.328;12.324;2023-12-20T13:04:03;5.35;;;1.67;;
64075;SDS011;50327;51.328;12.324;2023-12-20T13:06:31;5.80;;;1.50;;
64075;SDS011;50327;51.328;12.324;2023-12-20T13:08:57;13.18;;;1.80;;
64075;SDS011;50327;51.328;12.324;2023-12-20T13:11:22;9.43;;;1.73;;
64075;SDS011;50327;51.328;12.324;2023-12-20T13:13:47;10.43;;;2.35;;
64075;SDS011;50327;51.328;12.324;2023-12-20T13:16:12;11.32;;;2.10;;
64075;SDS011;50327;51.328;12.324;2023-12-20T13:18:38;7.35;;;1.40;;
64075;SDS011;50327;51.328;12.324;2023-12-20T13:23:32;9.67;;;1.77;;
64075;SDS011;50327;51.328;12.324;2023-12-20T13:25:57;8.73;;;1.60;;
64075;SDS011;50327;51.328;12.324;2023-12-20T13:28:23;5.78;;;1.42;;
64075;SDS011;50327;51.328;12.324;2023-12-20T13:30:48;8.70;;;2.05;;
64075;SDS011;50327;51.328;12.324;2023-12-20T13:33:13;10.15;;;1.75;;
64075;SDS011;50327;51.328;12.324;2023-12-20T13:35:38;5.28;;;1.45;;
64075;SDS011;50327;51.328;12.324;2023-12-20T13:38:04;7.82;;;1.23;;
64075;SDS011;50327;51.328;12.324;2023-12-20T13:40:29;10.73;;;1.50;;
64075;SDS011;50327;51.328;12.324;2023-12-20T13:42:55;5.88;;;1.70;;
64075;SDS011;50327;51.328;12.324;2023-12-20T13:45:20;8.07;;;2.13;;
64075;SDS011;50327;51.328;12.324;2023-12-20T13:47:45;3.97;;;1.50;;
64075;SDS011;50327;51.328;12.324;2023-12-20T13:50:10;3.72;;;1.55;;
64075;SDS011;50327;51.328;12.324;2023-12-20T13:52:36;8.70;;;1.63;;
64075;SDS011;50327;51.328;12.324;2023-12-20T13:55:01;4.35;;;1.17;;
64075;SDS011;50327;51.328;12.324;2023-12-20T13:57:26;6.07;;;1.85;;
64075;SDS011;50327;51.328;12.324;2023-12-20T13:59:53;7.95;;;1.63;;
64075;SDS011;50327;51.328;12.324;2023-12-20T14:02:19;4.47;;;1.33;;
64075;SDS011;50327;51.328;12.324;2023-12-20T14:04:44;4.20;;;1.65;;
64075;SDS011;50327;51.328;12.324;2023-12-20T14:07:10;2.47;;;1.20;;
64075;SDS011;50327;51.328;12.324;2023-12-20T14:09:35;4.97;;;1.40;;
64075;SDS011;50327;51.328;12.324;2023-12-20T14:12:00;8.82;;;2.72;;
64075;SDS011;50327;51.328;12.324;2023-12-20T14:14:26;5.88;;;1.30;;
64075;SDS011;50327;51.328;12.324;2023-12-20T14:16:51;7.68;;;1.23;;
64075;SDS011;50327;51.328;12.324;2023-12-20T14:19:16;5.70;;;1.35;;
64075;SDS011;50327;51.328;12.324;2023-12-20T14:21:41;4.80;;;1.67;;
64075;SDS011;50327;51.328;12.324;2023-12-20T14:24:07;5.70;;;1.50;;
64075;SDS011;50327;51.328;12.324;2023-12-20T14:26:32;3.40;;;1.20;;
64075;SDS011;50327;51.328;12.324;2023-12-20T14:28:57;6.32;;;1.40;;
64075;SDS011;50327;51.328;12.324;2023-12-20T14:31:22;5.60;;;1.25;;